createdAt,value
2023-12-22T00:00:05.923Z,94283.80
2023-12-22T00:02:34.543Z,94269.80
2023-12-22T00:05:02.764Z,94275.20
2023-12-22T00:07:30.857Z,94292.60
2023-12-22T00:09:59.050Z,94294.40
2023-12-22T00:12:27.074Z,94282.80
2023-12-22T00:14:55.186Z,94280.40
2023-12-22T00:17:23.261Z,94277.60
2023-12-22T00:19:51.429Z,94274.20
2023-12-22T00:22:19.826Z,94273.40
2023-12-22T00:24:48.006Z,94262.40
2023-12-22T00:27:16.140Z,94260.80
2023-12-22T00:29:44.315Z,94272.20
2023-12-22T00:32:12.717Z,94253.20
2023-12-22T00:34:40.878Z,94257.40
2023-12-22T00:37:08.940Z,94255.40
2023-12-22T00:39:37.093Z,94259.80
2023-12-22T00:42:05.582Z,94238.20
2023-12-22T00:44:33.839Z,94237.40
2023-12-22T00:47:02.273Z,94240.60
2023-12-22T00:49:30.425Z,94236.80
2023-12-22T00:51:58.701Z,94237.20
2023-12-22T00:54:27.258Z,94230.60
2023-12-22T00:56:55.345Z,94224.80
2023-12-22T00:59:23.579Z,94230.60
2023-12-22T01:01:51.767Z,94221.20
2023-12-22T01:04:20.274Z,94230.60
2023-12-22T01:06:48.423Z,94221.80
2023-12-22T01:09:16.494Z,94224.00
2023-12-22T01:11:44.613Z,94204.00
2023-12-22T01:14:14.294Z,94188.80
2023-12-22T01:16:42.873Z,94196.00
2023-12-22T01:19:11.137Z,94177.20
2023-12-22T01:21:39.810Z,94166.20
2023-12-22T01:24:08.063Z,94164.20
2023-12-22T01:26:36.134Z,94165.60
2023-12-22T01:29:04.235Z,94168.60
2023-12-22T01:31:32.470Z,94162.00
2023-12-22T01:34:00.703Z,94158.20
2023-12-22T01:36:28.999Z,94148.00
2023-12-22T01:38:57.175Z,94158.80
2023-12-22T01:41:25.174Z,94138.80
2023-12-22T01:43:53.415Z,94140.00
2023-12-22T01:46:21.692Z,94136.40
2023-12-22T01:48:49.855Z,94125.80
2023-12-22T01:51:18.535Z,94116.80
2023-12-22T01:53:46.990Z,94123.20
2023-12-22T01:56:15.651Z,94108.80
2023-12-22T01:58:44.100Z,94093.80
2023-12-22T02:01:21.349Z,94086.60
2023-12-22T02:03:53.821Z,94088.60
2023-12-22T02:06:22.203Z,94074.40
2023-12-22T02:08:50.312Z,94066.20
2023-12-22T02:11:18.416Z,94061.40
2023-12-22T02:13:46.496Z,94066.00
2023-12-22T02:16:27.054Z,94078.00
2023-12-22T02:18:56.765Z,94060.80
2023-12-22T02:21:24.847Z,94044.60
2023-12-22T02:23:53.061Z,94041.60
2023-12-22T02:26:30.099Z,94041.40
2023-12-22T02:28:58.745Z,94049.80
2023-12-22T02:31:45.980Z,94039.40
2023-12-22T02:34:15.580Z,94036.60
2023-12-22T02:36:43.809Z,94039.20
2023-12-22T02:39:12.492Z,94037.80
2023-12-22T02:41:40.530Z,94041.80
2023-12-22T02:44:08.585Z,94031.40
2023-12-22T02:46:36.645Z,93996.80
2023-12-22T02:49:04.802Z,93992.00
2023-12-22T02:51:32.846Z,93984.40
2023-12-22T02:54:02.078Z,93979.00
2023-12-22T02:56:30.159Z,93971.00
2023-12-22T02:58:58.317Z,93970.40
2023-12-22T03:01:26.490Z,93971.20
2023-12-22T03:03:54.495Z,93971.80
2023-12-22T03:06:22.683Z,93959.40
2023-12-22T03:08:51.285Z,93958.40
2023-12-22T03:11:19.328Z,93947.20
2023-12-22T03:13:47.473Z,93946.00
2023-12-22T03:16:15.560Z,93956.00
2023-12-22T03:18:43.851Z,93947.20
2023-12-22T03:21:20.227Z,93953.20
2023-12-22T03:23:48.422Z,93949.80
2023-12-22T03:26:16.582Z,93948.80
2023-12-22T03:28:44.667Z,93944.40
2023-12-22T03:31:12.863Z,93941.60
2023-12-22T03:33:41.016Z,93943.80
2023-12-22T03:36:09.203Z,93948.00
2023-12-22T03:38:37.312Z,93953.80
2023-12-22T03:41:05.308Z,93968.80
2023-12-22T03:43:33.390Z,93969.80
2023-12-22T03:46:01.551Z,93989.80
2023-12-22T03:48:29.621Z,93991.00
2023-12-22T03:50:57.671Z,94008.40
2023-12-22T03:53:25.819Z,93982.40
2023-12-22T03:55:53.861Z,93984.80
2023-12-22T03:58:22.095Z,93974.40
2023-12-22T04:00:50.235Z,93974.00
2023-12-22T04:03:18.412Z,93978.20
2023-12-22T04:05:46.810Z,93981.80
2023-12-22T04:08:14.898Z,93992.60
2023-12-22T04:10:44.754Z,93992.00
2023-12-22T04:13:12.868Z,93995.40
2023-12-22T04:15:41.142Z,94001.20
2023-12-22T04:18:09.458Z,93993.60
2023-12-22T04:20:37.868Z,93990.80
2023-12-22T04:23:06.289Z,93983.20
2023-12-22T04:25:34.428Z,93970.40
2023-12-22T04:28:02.877Z,93971.40
2023-12-22T04:30:33.455Z,93975.40
2023-12-22T04:33:02.592Z,93973.60
2023-12-22T04:35:30.702Z,93970.80
2023-12-22T04:37:59.010Z,93960.80
2023-12-22T04:40:29.410Z,93965.60
2023-12-22T04:42:57.762Z,93965.20
2023-12-22T04:45:25.986Z,93967.60
2023-12-22T04:47:54.357Z,93966.40
2023-12-22T04:50:22.666Z,93961.20
2023-12-22T04:52:50.743Z,93957.80
2023-12-22T04:55:19.358Z,93949.00
2023-12-22T04:57:47.751Z,93956.40
2023-12-22T05:00:16.415Z,93959.20
2023-12-22T05:02:44.572Z,93954.80
2023-12-22T05:05:13.122Z,93943.20
2023-12-22T05:07:41.449Z,93938.00
2023-12-22T05:10:09.848Z,93922.40
2023-12-22T05:12:37.993Z,93909.20
2023-12-22T05:15:07.172Z,93890.80
2023-12-22T05:17:35.218Z,93876.60
2023-12-22T05:20:04.067Z,93930.20
2023-12-22T05:22:36.054Z,93937.60
2023-12-22T05:25:05.947Z,93943.40
2023-12-22T05:27:34.131Z,93930.20
2023-12-22T05:30:05.096Z,93917.00
2023-12-22T05:32:33.221Z,93911.60
2023-12-22T05:35:01.356Z,93895.60
2023-12-22T05:37:29.581Z,93889.00
2023-12-22T05:39:57.673Z,93892.80
2023-12-22T05:42:25.758Z,93883.40
2023-12-22T05:44:53.966Z,93886.80
2023-12-22T05:47:22.349Z,93885.00
2023-12-22T05:49:50.677Z,93902.20
2023-12-22T05:52:18.874Z,93904.80
2023-12-22T05:54:46.897Z,93919.60
2023-12-22T05:57:14.987Z,93932.80
2023-12-22T05:59:43.017Z,93949.60
2023-12-22T06:02:11.100Z,93986.40
2023-12-22T06:04:39.321Z,94010.80
2023-12-22T06:07:07.682Z,94031.40
2023-12-22T06:09:35.718Z,94040.20
2023-12-22T06:12:04.108Z,94050.40
2023-12-22T06:14:33.222Z,94050.60
2023-12-22T06:17:01.526Z,94055.80
2023-12-22T06:19:31.713Z,94061.80
2023-12-22T06:22:01.241Z,94069.00
2023-12-22T06:24:29.333Z,94066.80
2023-12-22T06:26:57.435Z,94050.00
2023-12-22T06:29:26.886Z,94062.60
2023-12-22T06:31:56.355Z,94070.60
2023-12-22T06:34:25.158Z,94082.20
2023-12-22T06:36:53.268Z,94091.60
2023-12-22T06:39:21.842Z,94091.00
2023-12-22T06:41:49.987Z,94094.20
2023-12-22T06:44:18.184Z,94111.60
2023-12-22T06:46:46.353Z,94118.40
2023-12-22T06:49:16.047Z,94112.40
2023-12-22T06:51:44.200Z,94124.40
2023-12-22T06:54:13.508Z,94125.60
2023-12-22T06:56:43.759Z,94136.80
2023-12-22T06:59:14.944Z,94121.80
2023-12-22T07:01:52.098Z,94125.80
2023-12-22T07:05:28.198Z,94134.60
2023-12-22T07:07:56.917Z,94142.80
2023-12-22T07:10:25.289Z,94148.00
2023-12-22T07:12:54.502Z,94141.00
2023-12-22T07:15:23.306Z,94137.60
2023-12-22T07:17:51.900Z,94140.20
2023-12-22T07:20:23.983Z,94147.60
2023-12-22T07:22:52.243Z,94153.20
2023-12-22T07:25:21.108Z,94162.80
2023-12-22T07:27:49.207Z,94171.20
2023-12-22T07:30:17.973Z,94170.00
2023-12-22T07:32:48.657Z,94177.00
2023-12-22T07:35:18.534Z,94178.80
2023-12-22T07:37:47.336Z,94183.40
2023-12-22T07:40:17.659Z,94185.40
2023-12-22T07:42:46.217Z,94199.00
2023-12-22T07:45:16.061Z,94197.40
2023-12-22T07:47:44.130Z,94206.20
2023-12-22T07:50:12.356Z,94207.20
2023-12-22T07:52:41.731Z,94212.60
2023-12-22T07:55:12.033Z,94226.40
2023-12-22T07:57:40.865Z,94234.40
2023-12-22T08:00:12.579Z,94249.40
2023-12-22T08:02:40.750Z,94256.00
2023-12-22T08:05:09.440Z,94254.80
2023-12-22T08:07:37.823Z,94259.80
2023-12-22T08:10:06.131Z,94265.40
2023-12-22T08:12:34.277Z,94265.40
2023-12-22T08:15:02.665Z,94263.80
2023-12-22T08:17:30.774Z,94270.00
2023-12-22T08:20:04.774Z,94279.20
2023-12-22T08:22:39.215Z,94283.20
2023-12-22T08:25:09.086Z,94282.20
2023-12-22T08:27:37.338Z,94286.60
2023-12-22T08:30:06.272Z,94292.20
2023-12-22T08:32:35.345Z,94294.20
2023-12-22T08:35:06.430Z,94292.00
2023-12-22T08:37:36.315Z,94286.40
2023-12-22T08:40:05.306Z,94290.20
2023-12-22T08:42:33.410Z,94280.40
2023-12-22T08:45:01.514Z,94285.20
2023-12-22T08:47:29.671Z,94279.40
2023-12-22T08:49:57.809Z,94278.20
2023-12-22T08:52:25.926Z,94265.40
2023-12-22T08:54:55.322Z,94259.40
2023-12-22T08:57:23.554Z,94258.40
2023-12-22T08:59:51.714Z,94264.80
2023-12-22T09:02:19.893Z,94264.00
2023-12-22T09:04:48.304Z,94270.80
2023-12-22T09:07:16.381Z,94274.80
2023-12-22T09:09:44.463Z,94274.60
2023-12-22T09:12:15.093Z,94273.80
2023-12-22T09:14:43.192Z,94272.20
2023-12-22T09:17:11.386Z,94280.40
2023-12-22T09:19:40.452Z,94277.20
2023-12-22T09:22:08.643Z,94279.40
2023-12-22T09:24:36.722Z,94262.60
2023-12-22T09:27:05.806Z,94270.00
2023-12-22T09:29:35.088Z,94268.40
2023-12-22T09:32:03.356Z,94267.20
2023-12-22T09:34:31.764Z,94266.20
2023-12-22T09:37:00.180Z,94262.40
2023-12-22T09:39:30.301Z,94265.20
2023-12-22T09:41:58.438Z,94265.40
2023-12-22T09:44:26.647Z,94261.80
2023-12-22T09:46:54.886Z,94257.80
2023-12-22T09:49:22.980Z,94257.20
2023-12-22T09:51:51.148Z,94251.20
2023-12-22T09:54:19.340Z,94247.40
2023-12-22T09:56:47.999Z,94240.40
2023-12-22T09:59:16.507Z,94253.00
2023-12-22T10:01:48.580Z,94253.00
2023-12-22T10:04:16.915Z,94254.80
2023-12-22T10:06:47.005Z,94254.80
2023-12-22T10:09:16.174Z,94261.20
2023-12-22T10:11:47.444Z,94260.80
2023-12-22T10:14:21.570Z,94261.60
2023-12-22T10:16:51.272Z,94261.60
2023-12-22T10:19:21.429Z,94257.40
2023-12-22T10:21:50.685Z,94258.00
2023-12-22T10:24:44.398Z,94252.60
2023-12-22T10:27:12.724Z,94254.20
2023-12-22T10:29:41.430Z,94260.40
2023-12-22T10:32:12.582Z,94260.60
2023-12-22T10:34:40.890Z,94260.00
2023-12-22T10:37:09.566Z,94253.20
2023-12-22T10:39:38.344Z,94256.20
2023-12-22T10:42:06.645Z,94254.20
2023-12-22T10:44:34.790Z,94257.00
2023-12-22T10:47:05.242Z,94248.60
2023-12-22T10:49:35.376Z,94252.80
2023-12-22T10:52:03.888Z,94254.20
2023-12-22T10:54:32.110Z,94253.00
2023-12-22T10:57:03.743Z,94252.60
2023-12-22T10:59:32.716Z,94259.00
2023-12-22T11:02:02.117Z,94259.80
2023-12-22T11:04:34.595Z,94267.40
2023-12-22T11:07:04.628Z,94266.20
2023-12-22T11:09:33.195Z,94274.60
2023-12-22T11:12:02.398Z,94269.00
2023-12-22T11:14:30.642Z,94273.60
2023-12-22T11:16:58.798Z,94259.20
2023-12-22T11:19:27.071Z,94262.80
2023-12-22T11:21:56.129Z,94266.40
2023-12-22T11:24:24.130Z,94272.80
2023-12-22T11:26:52.295Z,94275.40
2023-12-22T11:29:21.580Z,94271.60
2023-12-22T11:31:49.730Z,94267.40
2023-12-22T11:34:19.978Z,94254.60
2023-12-22T11:36:48.310Z,94254.80
2023-12-22T11:39:16.399Z,94244.80
2023-12-22T11:41:44.465Z,94240.20
2023-12-22T11:44:12.476Z,94235.80
2023-12-22T11:46:40.653Z,94233.20
2023-12-22T11:49:08.761Z,94240.60
2023-12-22T11:51:37.053Z,94247.40
2023-12-22T11:54:05.316Z,94244.20
2023-12-22T11:56:34.084Z,94240.20
2023-12-22T11:59:03.180Z,94239.40
2023-12-22T12:01:33.506Z,94234.40
2023-12-22T12:04:07.393Z,94229.20
2023-12-22T12:06:38.404Z,94229.60
2023-12-22T12:09:09.506Z,94233.20
2023-12-22T12:11:53.077Z,94234.60
2023-12-22T12:14:27.526Z,94242.00
2023-12-22T12:17:07.513Z,94246.20
2023-12-22T12:19:39.118Z,94246.80
2023-12-22T12:22:08.428Z,94253.60
2023-12-22T12:24:38.329Z,94250.20
2023-12-22T12:27:06.364Z,94250.20
2023-12-22T12:29:34.683Z,94251.00
2023-12-22T12:32:07.340Z,94252.80
2023-12-22T12:34:36.034Z,94255.40
2023-12-22T12:37:05.419Z,94251.80
2023-12-22T12:39:35.158Z,94244.60
2023-12-22T12:42:04.288Z,94248.60
2023-12-22T12:44:33.655Z,94255.60
2023-12-22T12:47:13.214Z,94242.00
2023-12-22T12:49:41.634Z,94251.40
2023-12-22T12:52:14.863Z,94262.40
2023-12-22T12:54:43.446Z,94263.40
2023-12-22T12:57:17.981Z,94272.00
2023-12-22T12:59:48.095Z,94275.40
2023-12-22T13:02:17.649Z,94272.60
2023-12-22T13:04:46.126Z,94267.80
2023-12-22T13:07:14.409Z,94277.80
2023-12-22T13:09:45.743Z,94280.60
2023-12-22T13:12:13.896Z,94283.60
2023-12-22T13:14:42.150Z,94289.00
2023-12-22T13:17:11.530Z,94301.60
2023-12-22T13:19:40.731Z,94302.80
2023-12-22T13:22:08.990Z,94309.60
2023-12-22T13:24:37.139Z,94321.00
2023-12-22T13:27:07.575Z,94313.60
2023-12-22T13:29:46.109Z,94315.20
2023-12-22T13:32:21.623Z,94317.00
2023-12-22T13:34:51.733Z,94306.80
2023-12-22T13:37:20.368Z,94294.20
2023-12-22T13:39:48.475Z,94284.00
2023-12-22T13:42:20.600Z,94298.00
2023-12-22T13:44:50.863Z,94309.40
2023-12-22T13:47:21.902Z,94305.20
2023-12-22T13:49:50.173Z,94305.20
2023-12-22T13:52:36.268Z,94311.80
2023-12-22T13:55:25.097Z,94311.80
2023-12-22T13:58:00.449Z,94314.80
2023-12-22T14:00:32.924Z,94310.80
2023-12-22T14:03:02.317Z,94320.40
2023-12-22T14:05:33.952Z,94310.60
2023-12-22T14:08:07.204Z,94328.00
2023-12-22T14:10:35.459Z,94331.60
2023-12-22T14:13:04.206Z,94339.40
2023-12-22T14:15:38.174Z,94353.40
2023-12-22T14:18:13.059Z,94336.20
2023-12-22T14:20:41.575Z,94333.80
2023-12-22T14:23:14.604Z,94322.00
2023-12-22T14:25:43.961Z,94324.40
2023-12-22T14:28:12.388Z,94315.20
2023-12-22T14:30:40.751Z,94307.60
2023-12-22T14:33:08.962Z,94301.40
2023-12-22T14:35:37.703Z,94309.20
2023-12-22T14:38:05.776Z,94308.80
2023-12-22T14:40:34.373Z,94313.00
2023-12-22T14:43:03.434Z,94312.80
2023-12-22T14:45:31.673Z,94315.80
2023-12-22T14:48:00.329Z,94301.80
2023-12-22T14:50:28.655Z,94313.40
2023-12-22T14:52:56.955Z,94299.80
2023-12-22T14:55:25.049Z,94307.00
2023-12-22T14:57:53.684Z,94308.20
2023-12-22T15:00:21.979Z,94311.40
2023-12-22T15:02:50.634Z,94317.00
2023-12-22T15:05:19.369Z,94321.20
2023-12-22T15:07:47.946Z,94322.20
2023-12-22T15:10:16.513Z,94313.20
2023-12-22T15:12:44.780Z,94319.60
2023-12-22T15:15:12.843Z,94328.40
2023-12-22T15:17:40.870Z,94328.40
2023-12-22T15:20:12.588Z,94329.00
2023-12-22T15:22:41.496Z,94342.00
2023-12-22T15:25:09.903Z,94359.60
2023-12-22T15:27:39.969Z,94358.40
2023-12-22T15:30:08.556Z,94361.20
2023-12-22T15:32:36.830Z,94356.40
2023-12-22T15:35:05.454Z,94347.00
2023-12-22T15:37:36.260Z,94334.80
2023-12-22T15:40:05.221Z,94325.60
2023-12-22T15:42:33.683Z,94324.20
2023-12-22T15:45:01.783Z,94318.80
2023-12-22T15:47:30.178Z,94306.60
2023-12-22T15:49:58.246Z,94307.40
2023-12-22T15:52:26.284Z,94309.00
2023-12-22T15:54:54.361Z,94316.20
2023-12-22T15:57:22.534Z,94328.80
2023-12-22T15:59:50.526Z,94326.40
2023-12-22T16:02:18.601Z,94325.00
2023-12-22T16:04:46.789Z,94324.60
2023-12-22T16:07:14.961Z,94319.80
2023-12-22T16:09:43.022Z,94331.20
2023-12-22T16:12:11.120Z,94323.20
2023-12-22T16:14:39.248Z,94321.00
2023-12-22T16:17:07.528Z,94319.80
2023-12-22T16:19:39.682Z,94317.60
2023-12-22T16:22:08.049Z,94313.60
2023-12-22T16:24:40.095Z,94308.80
2023-12-22T16:27:08.188Z,94296.80
2023-12-22T16:29:39.951Z,94299.40
2023-12-22T16:32:08.161Z,94299.60
2023-12-22T16:34:36.389Z,94303.00
2023-12-22T16:37:04.659Z,94300.00
2023-12-22T16:39:34.824Z,94309.20
2023-12-22T16:42:04.707Z,94308.00
2023-12-22T16:44:32.720Z,94308.00
2023-12-22T16:47:00.788Z,94300.60
2023-12-22T16:49:28.942Z,94296.40
2023-12-22T16:51:57.000Z,94292.00
2023-12-22T16:54:25.077Z,94280.00
2023-12-22T16:56:53.147Z,94275.60
2023-12-22T16:59:21.319Z,94277.60
2023-12-22T17:02:00.864Z,94273.80
2023-12-22T17:04:37.728Z,94289.00
2023-12-22T17:07:08.321Z,94287.80
2023-12-22T17:09:36.945Z,94291.40
2023-12-22T17:12:05.449Z,94295.80
2023-12-22T17:14:33.620Z,94290.60
2023-12-22T17:17:01.741Z,94296.20
2023-12-22T17:19:30.274Z,94289.60
2023-12-22T17:21:58.328Z,94284.00
2023-12-22T17:24:27.096Z,94283.60
2023-12-22T17:26:55.903Z,94290.60
2023-12-22T17:29:24.265Z,94287.20
2023-12-22T17:31:57.124Z,94291.80
2023-12-22T17:34:25.295Z,94289.60
2023-12-22T17:36:53.436Z,94300.80
2023-12-22T17:39:21.463Z,94289.40
2023-12-22T17:41:49.653Z,94304.40
2023-12-22T17:44:17.927Z,94296.60
2023-12-22T17:46:46.378Z,94308.00
2023-12-22T17:49:14.582Z,94312.80
2023-12-22T17:51:42.590Z,94313.80
2023-12-22T17:54:11.056Z,94313.40
2023-12-22T17:56:39.247Z,94322.80
2023-12-22T17:59:07.469Z,94324.00
2023-12-22T18:01:35.618Z,94321.80
2023-12-22T18:04:03.700Z,94317.20
2023-12-22T18:06:31.705Z,94319.60
2023-12-22T18:08:59.800Z,94318.40
2023-12-22T18:11:27.952Z,94312.60
2023-12-22T18:13:56.456Z,94311.20
2023-12-22T18:16:24.630Z,94310.80
2023-12-22T18:18:52.818Z,94312.00
2023-12-22T18:21:21.039Z,94312.00
2023-12-22T18:23:49.307Z,94312.40
2023-12-22T18:26:17.403Z,94301.20
2023-12-22T18:28:45.576Z,94292.00
2023-12-22T18:31:13.697Z,94293.40
2023-12-22T18:33:43.167Z,94285.60
2023-12-22T18:36:11.399Z,94288.00
2023-12-22T18:38:39.485Z,94278.80
2023-12-22T18:41:09.655Z,94274.40
2023-12-22T18:43:39.517Z,94282.80
2023-12-22T18:46:07.820Z,94275.60
2023-12-22T18:48:36.597Z,94274.40
2023-12-22T18:51:05.223Z,94275.20
2023-12-22T18:53:33.241Z,94280.00
2023-12-22T18:56:01.428Z,94270.60
2023-12-22T18:58:30.503Z,94279.60
2023-12-22T19:00:59.004Z,94277.40
2023-12-22T19:03:27.360Z,94273.60
2023-12-22T19:05:56.074Z,94272.80
2023-12-22T19:08:24.454Z,94265.40
2023-12-22T19:10:52.665Z,94268.00
2023-12-22T19:13:20.844Z,94262.20
2023-12-22T19:15:50.098Z,94255.80
2023-12-22T19:18:18.312Z,94259.20
2023-12-22T19:20:46.469Z,94268.60
2023-12-22T19:23:14.540Z,94275.20
2023-12-22T19:25:42.720Z,94291.00
2023-12-22T19:28:10.875Z,94306.80
2023-12-22T19:30:38.951Z,94317.20
2023-12-22T19:33:07.427Z,94329.20
2023-12-22T19:35:35.567Z,94329.80
2023-12-22T19:38:03.713Z,94343.00
2023-12-22T19:40:32.311Z,94334.20
2023-12-22T19:43:00.538Z,94347.00
2023-12-22T19:45:28.847Z,94338.00
2023-12-22T19:47:57.079Z,94335.00
2023-12-22T19:50:27.618Z,94341.20
2023-12-22T19:52:56.087Z,94334.40
2023-12-22T19:55:25.706Z,94321.60
2023-12-22T19:57:54.598Z,94320.00
2023-12-22T20:00:22.749Z,94322.40
2023-12-22T20:02:51.432Z,94311.00
2023-12-22T20:05:19.698Z,94306.60
2023-12-22T20:07:48.528Z,94296.40
2023-12-22T20:10:17.286Z,94298.80
2023-12-22T20:12:45.362Z,94306.60
2023-12-22T20:15:13.580Z,94322.00
2023-12-22T20:17:42.384Z,94332.80
2023-12-22T20:20:11.766Z,94338.80
2023-12-22T20:22:40.152Z,94338.20
2023-12-22T20:25:11.604Z,94320.40
2023-12-22T20:27:40.498Z,94339.40
2023-12-22T20:30:09.722Z,94349.00
2023-12-22T20:32:37.893Z,94353.80
2023-12-22T20:35:06.822Z,94364.00
2023-12-22T20:37:35.107Z,94354.80
2023-12-22T20:40:03.521Z,94372.80
2023-12-22T20:42:31.609Z,94384.20
2023-12-22T20:45:01.298Z,94388.00
2023-12-22T20:47:29.510Z,94379.80
2023-12-22T20:49:57.678Z,94387.40
2023-12-22T20:52:25.769Z,94393.80
2023-12-22T20:54:54.135Z,94392.20
2023-12-22T20:57:22.424Z,94394.00
2023-12-22T20:59:50.487Z,94381.20
2023-12-22T21:02:21.392Z,94381.80
2023-12-22T21:04:51.710Z,94370.40
2023-12-22T21:07:25.325Z,94381.20
2023-12-22T21:09:53.682Z,94395.80
2023-12-22T21:12:21.785Z,94398.40
2023-12-22T21:14:50.971Z,94393.60
2023-12-22T21:17:22.279Z,94401.80
2023-12-22T21:19:50.859Z,94389.40
2023-12-22T21:22:19.015Z,94396.40
2023-12-22T21:24:47.016Z,94367.60
2023-12-22T21:27:15.090Z,94381.40
2023-12-22T21:29:44.450Z,94393.80
2023-12-22T21:32:12.806Z,94380.80
2023-12-22T21:34:41.088Z,94382.00
2023-12-22T21:37:09.251Z,94376.80
2023-12-22T21:39:37.545Z,94372.80
2023-12-22T21:42:06.068Z,94376.40
2023-12-22T21:44:34.087Z,94384.40
2023-12-22T21:47:02.236Z,94384.60
2023-12-22T21:49:30.414Z,94379.40
2023-12-22T21:51:58.463Z,94378.80
2023-12-22T21:54:28.065Z,94376.20
2023-12-22T21:56:57.873Z,94366.00
2023-12-22T21:59:27.900Z,94364.00
2023-12-22T22:01:56.070Z,94367.60
2023-12-22T22:04:27.242Z,94358.00
2023-12-22T22:06:58.075Z,94361.00
2023-12-22T22:09:26.302Z,94369.80
2023-12-22T22:11:54.442Z,94359.80
2023-12-22T22:14:29.019Z,94356.80
2023-12-22T22:16:59.095Z,94355.40
2023-12-22T22:19:27.575Z,94350.60
2023-12-22T22:21:55.862Z,94350.80
2023-12-22T22:24:24.369Z,94351.20
2023-12-22T22:26:52.442Z,94350.80
2023-12-22T22:29:20.993Z,94349.40
2023-12-22T22:31:49.268Z,94360.60
2023-12-22T22:34:17.380Z,94356.20
2023-12-22T22:36:45.445Z,94355.80
2023-12-22T22:39:13.491Z,94358.60
2023-12-22T22:41:44.744Z,94363.60
2023-12-22T22:44:13.225Z,94362.00
2023-12-22T22:46:41.932Z,94350.60
2023-12-22T22:49:13.947Z,94343.60
2023-12-22T22:51:42.174Z,94343.20
2023-12-22T22:54:10.251Z,94339.80
2023-12-22T22:56:41.057Z,94330.80
2023-12-22T22:59:10.655Z,94324.00
2023-12-22T23:01:39.016Z,94324.60
2023-12-22T23:04:07.367Z,94319.00
2023-12-22T23:06:35.610Z,94327.60
2023-12-22T23:09:04.012Z,94317.80
2023-12-22T23:11:32.052Z,94321.80
2023-12-22T23:14:00.340Z,94318.20
2023-12-22T23:16:28.505Z,94322.60
2023-12-22T23:18:57.240Z,94324.60
2023-12-22T23:21:25.450Z,94331.60
2023-12-22T23:23:53.632Z,94334.60
2023-12-22T23:26:22.891Z,94335.20
2023-12-22T23:28:51.169Z,94332.00
2023-12-22T23:31:19.321Z,94334.40
2023-12-22T23:33:47.416Z,94325.80
2023-12-22T23:36:22.171Z,94326.60
2023-12-22T23:38:55.816Z,94327.20
2023-12-22T23:41:24.371Z,94332.00
2023-12-22T23:43:52.681Z,94327.20
2023-12-22T23:46:20.936Z,94342.80
2023-12-22T23:48:49.169Z,94342.60
2023-12-22T23:51:17.821Z,94351.40
2023-12-22T23:53:45.914Z,94352.00
2023-12-22T23:56:14.162Z,94351.00
2023-12-22T23:58:42.407Z,94348.20
